createdAt,value
2022-12-16T00:01:29.092Z,-2.00
2022-12-16T00:03:58.554Z,-2.00
2022-12-16T00:06:31.313Z,-2.00
2022-12-16T00:09:00.314Z,-2.00
2022-12-16T00:11:28.752Z,-2.00
2022-12-16T00:13:56.758Z,-2.00
2022-12-16T00:16:25.014Z,-2.00
2022-12-16T00:18:53.174Z,-2.00
2022-12-16T00:21:21.649Z,-2.00
2022-12-16T00:23:51.005Z,-2.00
2022-12-16T00:26:19.039Z,-2.00
2022-12-16T00:28:47.205Z,-2.00
2022-12-16T00:31:15.346Z,-1.90
2022-12-16T00:33:43.620Z,-2.00
2022-12-16T00:36:11.774Z,-1.90
2022-12-16T00:38:39.764Z,-1.90
2022-12-16T00:41:09.586Z,-1.90
2022-12-16T00:43:37.693Z,-1.90
2022-12-16T00:46:06.046Z,-1.90
2022-12-16T00:48:34.425Z,-1.90
2022-12-16T00:51:02.697Z,-1.20
2022-12-16T00:53:31.488Z,-0.80
2022-12-16T00:56:04.562Z,-1.30
2022-12-16T00:58:34.167Z,-0.70
2022-12-16T01:01:02.972Z,-0.50
2022-12-16T01:03:31.566Z,-0.50
2022-12-16T01:05:59.730Z,0.10
2022-12-16T01:08:27.864Z,-1.10
2022-12-16T01:10:58.089Z,-1.80
2022-12-16T01:13:27.619Z,-0.70
2022-12-16T01:16:01.619Z,-1.90
2022-12-16T01:18:30.193Z,-1.10
2022-12-16T01:21:04.559Z,-0.50
2022-12-16T01:23:33.536Z,-0.50
2022-12-16T01:26:03.265Z,-2.30
2022-12-16T01:28:32.088Z,-0.80
2022-12-16T01:31:02.826Z,-0.90
2022-12-16T01:33:32.940Z,-0.60
2022-12-16T01:36:03.888Z,-1.40
2022-12-16T01:38:32.473Z,-1.30
2022-12-16T01:41:01.083Z,-1.20
2022-12-16T01:43:31.780Z,-0.60
2022-12-16T01:46:06.391Z,-1.20
2022-12-16T01:48:44.101Z,-0.80
2022-12-16T01:51:17.096Z,-1.30
2022-12-16T01:53:47.791Z,-1.90
2022-12-16T01:56:18.154Z,-2.00
2022-12-16T01:58:47.011Z,-2.00
2022-12-16T02:01:17.710Z,-1.90
2022-12-16T02:03:46.181Z,-2.00
2022-12-16T02:06:14.158Z,-2.00
2022-12-16T02:08:43.078Z,-1.90
2022-12-16T02:11:30.147Z,-2.00
2022-12-16T02:14:22.479Z,-1.90
2022-12-16T02:16:57.684Z,-1.90
2022-12-16T02:20:09.994Z,-2.00
2022-12-16T02:23:03.073Z,-1.90
2022-12-16T02:26:00.275Z,-1.90
2022-12-16T02:28:46.078Z,-1.90
2022-12-16T02:31:26.855Z,-1.90
2022-12-16T02:34:09.246Z,-1.90
2022-12-16T02:36:58.051Z,-1.90
2022-12-16T02:39:33.448Z,-1.90
2022-12-16T02:42:08.011Z,-1.90
2022-12-16T02:44:45.452Z,-1.90
2022-12-16T02:47:14.836Z,-1.90
2022-12-16T02:49:54.012Z,-1.90
2022-12-16T02:52:26.121Z,-1.90
2022-12-16T02:54:56.973Z,-1.90
2022-12-16T02:57:42.817Z,-1.90
2022-12-16T03:00:13.903Z,-1.90
2022-12-16T03:02:50.718Z,-2.00
2022-12-16T03:05:23.938Z,-1.90
2022-12-16T03:07:55.226Z,-1.90
2022-12-16T03:10:29.062Z,-1.20
2022-12-16T03:12:59.150Z,-1.90
2022-12-16T03:15:30.052Z,-2.00
2022-12-16T03:18:00.915Z,-1.90
2022-12-16T03:20:34.106Z,-1.90
2022-12-16T03:23:08.421Z,-1.90
2022-12-16T03:25:39.974Z,-1.90
2022-12-16T03:28:17.506Z,-1.90
2022-12-16T03:30:50.716Z,-1.90
2022-12-16T03:33:27.689Z,-1.90
2022-12-16T03:36:01.135Z,-1.90
2022-12-16T03:38:29.688Z,-1.90
2022-12-16T03:40:59.158Z,-1.90
2022-12-16T03:43:27.301Z,-1.90
2022-12-16T03:45:59.832Z,-2.00
2022-12-16T03:48:29.392Z,-2.00
2022-12-16T03:50:57.617Z,-2.00
2022-12-16T03:53:27.001Z,-1.90
2022-12-16T03:55:55.103Z,-2.00
2022-12-16T03:58:23.376Z,-2.00
2022-12-16T04:00:51.367Z,-2.00
2022-12-16T04:03:22.683Z,-0.80
2022-12-16T04:05:52.088Z,-2.00
2022-12-16T04:08:20.069Z,-2.10
2022-12-16T04:11:05.515Z,-2.10
2022-12-16T04:13:51.500Z,-2.10
2022-12-16T04:16:36.866Z,-2.10
2022-12-16T04:19:23.112Z,-2.10
2022-12-16T04:22:09.951Z,-2.10
2022-12-16T04:24:38.093Z,-2.10
2022-12-16T04:27:23.427Z,-2.20
2022-12-16T04:30:09.077Z,-2.20
2022-12-16T04:32:51.295Z,-2.20
2022-12-16T04:35:36.920Z,-2.20
2022-12-16T04:38:24.275Z,-2.20
2022-12-16T04:41:09.678Z,-2.20
2022-12-16T04:43:55.192Z,-2.20
2022-12-16T04:46:40.770Z,-2.20
2022-12-16T04:49:26.345Z,-2.20
2022-12-16T04:52:11.869Z,-2.30
2022-12-16T04:54:58.798Z,-2.20
2022-12-16T04:57:44.006Z,-2.20
2022-12-16T05:00:30.347Z,-2.20
2022-12-16T05:03:16.361Z,-2.30
2022-12-16T05:06:02.117Z,-2.20
2022-12-16T05:08:47.416Z,-2.20
2022-12-16T05:11:34.189Z,-2.20
2022-12-16T05:14:19.737Z,-2.20
2022-12-16T05:17:04.968Z,-2.20
2022-12-16T05:19:50.242Z,-2.30
2022-12-16T05:22:36.126Z,-2.30
2022-12-16T05:25:21.768Z,-2.30
2022-12-16T05:28:11.513Z,-2.30
2022-12-16T05:30:57.855Z,-2.30
2022-12-16T05:33:43.336Z,-2.30
2022-12-16T05:36:29.223Z,-2.30
2022-12-16T05:39:14.492Z,-2.30
2022-12-16T05:41:59.941Z,-2.40
2022-12-16T05:44:47.075Z,-2.40
2022-12-16T05:47:32.464Z,-2.40
2022-12-16T05:50:17.931Z,-2.40
2022-12-16T05:53:16.269Z,-2.40
2022-12-16T05:56:02.490Z,-2.40
2022-12-16T05:58:48.448Z,-2.40
2022-12-16T06:01:35.569Z,-2.40
2022-12-16T06:04:21.207Z,-2.40
2022-12-16T06:07:06.734Z,-2.50
2022-12-16T06:09:56.627Z,-2.50
2022-12-16T06:12:42.962Z,-2.40
2022-12-16T06:15:29.195Z,-2.40
2022-12-16T06:18:16.146Z,-2.40
2022-12-16T06:21:02.038Z,-2.40
2022-12-16T06:23:47.385Z,-2.20
2022-12-16T06:26:33.061Z,-2.40
2022-12-16T06:29:18.340Z,-2.40
2022-12-16T06:32:03.703Z,-2.40
2022-12-16T06:34:50.744Z,-2.40
2022-12-16T06:37:36.199Z,-2.40
2022-12-16T06:40:21.929Z,-2.40
2022-12-16T06:43:07.537Z,-2.40
2022-12-16T06:45:52.988Z,-2.40
2022-12-16T06:48:38.299Z,-2.40
2022-12-16T06:51:25.168Z,-2.40
2022-12-16T06:54:10.719Z,-2.40
2022-12-16T06:56:56.330Z,-2.40
2022-12-16T06:59:41.902Z,-2.40
2022-12-16T07:02:29.536Z,-2.40
2022-12-16T07:05:15.412Z,-2.40
2022-12-16T07:08:07.650Z,-2.40
2022-12-16T07:10:54.966Z,-2.40
2022-12-16T07:13:41.202Z,-2.40
2022-12-16T07:16:26.624Z,-2.40
2022-12-16T07:19:11.771Z,-2.40
2022-12-16T07:22:02.583Z,-2.40
2022-12-16T07:24:49.423Z,-2.40
2022-12-16T07:27:34.782Z,-2.40
2022-12-16T07:30:20.097Z,-2.30
2022-12-16T07:33:08.686Z,-2.30
2022-12-16T07:35:53.974Z,-2.30
2022-12-16T07:38:39.344Z,-2.10
2022-12-16T07:41:26.477Z,-2.00
2022-12-16T07:44:12.032Z,-2.00
2022-12-16T07:46:57.795Z,-1.90
2022-12-16T07:49:43.379Z,-1.90
2022-12-16T07:52:28.949Z,-1.90
2022-12-16T07:55:14.572Z,-1.90
2022-12-16T07:58:07.460Z,-1.80
2022-12-16T08:00:52.839Z,-1.80
2022-12-16T08:03:38.669Z,-1.80
2022-12-16T08:06:24.449Z,-1.80
2022-12-16T08:09:10.022Z,-1.80
2022-12-16T08:11:55.618Z,-1.70
2022-12-16T08:14:42.416Z,-1.60
2022-12-16T08:17:39.553Z,-1.70
2022-12-16T08:20:37.509Z,-1.60
2022-12-16T08:23:23.082Z,-1.60
2022-12-16T08:26:08.295Z,-1.60
2022-12-16T08:28:53.992Z,-1.50
2022-12-16T08:31:41.000Z,-1.60
2022-12-16T08:34:27.252Z,-1.60
2022-12-16T08:37:12.848Z,-1.60
2022-12-16T08:40:18.016Z,-1.60
2022-12-16T08:43:07.861Z,-1.70
2022-12-16T08:45:56.447Z,-1.70
2022-12-16T08:48:43.392Z,-1.70
2022-12-16T08:51:28.696Z,-1.70
2022-12-16T08:54:14.109Z,-1.50
2022-12-16T08:56:59.614Z,-1.50
2022-12-16T08:59:44.822Z,-1.40
2022-12-16T09:02:30.666Z,-0.20
2022-12-16T09:05:17.532Z,-1.10
2022-12-16T09:08:02.702Z,-0.90
2022-12-16T09:10:48.394Z,-0.90
2022-12-16T09:13:35.659Z,-0.80
2022-12-16T09:16:21.278Z,-0.70
2022-12-16T09:19:07.145Z,-0.70
2022-12-16T09:21:54.817Z,-0.40
2022-12-16T09:24:40.528Z,0.50
2022-12-16T09:27:26.145Z,-0.20
2022-12-16T09:30:11.489Z,0.20
2022-12-16T09:33:00.079Z,0.30
2022-12-16T09:35:45.516Z,0.10
2022-12-16T09:38:32.238Z,-0.10
2022-12-16T09:41:49.227Z,-0.50
2022-12-16T09:44:42.626Z,-0.60
2022-12-16T09:47:52.612Z,-0.60
2022-12-16T09:50:41.068Z,-0.60
2022-12-16T09:53:31.417Z,-0.50
2022-12-16T09:56:21.488Z,-0.20
2022-12-16T09:59:12.490Z,-0.10
2022-12-16T10:01:58.583Z,0.10
2022-12-16T10:04:44.459Z,0.00
2022-12-16T10:07:35.564Z,0.10
2022-12-16T10:10:43.425Z,0.00
2022-12-16T10:13:39.183Z,-0.30
2022-12-16T10:16:33.051Z,-0.20
2022-12-16T10:19:26.735Z,-0.30
2022-12-16T10:22:20.525Z,-0.40
2022-12-16T10:25:14.598Z,-0.50
2022-12-16T10:28:03.458Z,-0.40
2022-12-16T10:30:51.805Z,-0.30
2022-12-16T10:33:38.698Z,0.00
2022-12-16T10:36:30.386Z,0.00
2022-12-16T10:39:19.897Z,0.10
2022-12-16T10:42:09.241Z,0.00
2022-12-16T10:45:03.163Z,0.70
2022-12-16T10:48:01.255Z,0.30
2022-12-16T10:50:46.932Z,0.10
2022-12-16T10:53:34.043Z,0.30
2022-12-16T10:56:36.679Z,0.40
2022-12-16T10:59:24.500Z,0.50
2022-12-16T11:02:16.800Z,0.60
2022-12-16T11:05:04.551Z,0.50
2022-12-16T11:08:01.142Z,0.50
2022-12-16T11:10:56.032Z,0.30
2022-12-16T11:13:46.892Z,0.30
2022-12-16T11:16:35.753Z,0.30
2022-12-16T11:19:23.177Z,0.10
2022-12-16T11:22:24.960Z,-0.10
2022-12-16T11:25:23.732Z,-0.20
2022-12-16T11:28:09.272Z,0.10
2022-12-16T11:30:55.457Z,0.00
2022-12-16T11:33:44.360Z,0.20
2022-12-16T11:36:34.900Z,0.20
2022-12-16T11:39:22.712Z,0.20
2022-12-16T11:42:12.054Z,0.20
2022-12-16T11:45:01.483Z,0.40
2022-12-16T11:47:56.510Z,0.80
2022-12-16T11:50:45.259Z,0.70
2022-12-16T11:53:48.844Z,0.70
2022-12-16T11:56:40.748Z,0.80
2022-12-16T11:59:49.904Z,0.80
2022-12-16T12:02:41.863Z,0.70
2022-12-16T12:05:31.450Z,0.60
2022-12-16T12:08:20.895Z,0.80
2022-12-16T12:11:17.798Z,0.50
2022-12-16T12:14:15.256Z,0.50
2022-12-16T12:17:16.351Z,0.50
2022-12-16T12:20:12.299Z,0.40
2022-12-16T12:22:58.153Z,0.40
2022-12-16T12:25:51.488Z,0.30
2022-12-16T12:28:48.269Z,0.10
2022-12-16T12:31:49.241Z,0.00
2022-12-16T12:34:43.989Z,0.10
2022-12-16T12:37:39.159Z,-0.20
2022-12-16T12:40:43.202Z,0.00
2022-12-16T12:43:42.718Z,0.00
2022-12-16T12:46:37.285Z,0.10
2022-12-16T12:49:34.586Z,-0.10
2022-12-16T12:52:29.058Z,0.20
2022-12-16T12:55:22.770Z,0.10
2022-12-16T12:58:09.941Z,0.00
2022-12-16T13:01:12.866Z,-0.10
2022-12-16T13:04:02.674Z,-0.20
2022-12-16T13:06:50.151Z,-0.10
2022-12-16T13:09:49.016Z,-0.20
2022-12-16T13:12:47.482Z,-0.30
2022-12-16T13:15:53.493Z,-0.20
2022-12-16T13:18:48.455Z,-0.30
2022-12-16T13:22:04.519Z,-0.30
2022-12-16T13:25:02.934Z,-0.30
2022-12-16T13:28:03.737Z,-0.30
2022-12-16T13:30:51.229Z,-0.30
2022-12-16T13:33:43.540Z,-0.10
2022-12-16T13:36:31.320Z,-0.40
2022-12-16T13:39:36.673Z,-0.30
2022-12-16T13:42:22.546Z,-0.40
2022-12-16T13:45:16.232Z,-0.50
2022-12-16T13:48:22.152Z,-0.50
2022-12-16T13:51:18.102Z,-0.50
2022-12-16T13:54:17.192Z,-0.60
2022-12-16T13:57:08.583Z,-0.70
2022-12-16T13:59:59.083Z,-0.70
2022-12-16T14:02:50.399Z,-0.70
2022-12-16T14:05:38.306Z,-0.80
2022-12-16T14:08:25.746Z,-0.80
2022-12-16T14:11:17.547Z,-0.80
2022-12-16T14:14:08.876Z,-0.80
2022-12-16T14:17:05.150Z,-0.70
2022-12-16T14:19:58.007Z,-0.80
2022-12-16T14:22:59.111Z,-0.80
2022-12-16T14:25:44.955Z,-0.90
2022-12-16T14:28:44.927Z,-0.90
2022-12-16T14:31:35.514Z,-1.00
2022-12-16T14:34:22.091Z,-1.00
2022-12-16T14:37:07.539Z,-1.00
2022-12-16T14:39:57.765Z,-1.00
2022-12-16T14:42:46.197Z,-1.00
2022-12-16T14:45:47.385Z,-0.90
2022-12-16T14:48:49.591Z,-1.00
2022-12-16T14:51:43.637Z,-1.00
2022-12-16T14:54:44.982Z,-1.10
2022-12-16T14:57:34.224Z,-1.00
2022-12-16T15:00:38.362Z,-1.10
2022-12-16T15:03:30.939Z,-1.20
2022-12-16T15:06:19.861Z,-1.20
2022-12-16T15:09:09.344Z,-1.20
2022-12-16T15:11:56.469Z,-1.30
2022-12-16T15:14:46.283Z,-1.30
2022-12-16T15:17:51.113Z,-1.20
2022-12-16T15:20:40.512Z,-1.30
2022-12-16T15:23:37.841Z,-1.30
2022-12-16T15:26:23.960Z,-1.30
2022-12-16T15:29:09.699Z,-1.30
2022-12-16T15:32:02.933Z,-1.30
2022-12-16T15:34:51.774Z,-1.40
2022-12-16T15:37:40.108Z,-1.40
2022-12-16T15:40:41.034Z,-1.40
2022-12-16T15:43:40.222Z,-1.40
2022-12-16T15:46:34.299Z,-1.40
2022-12-16T15:49:19.758Z,-1.40
2022-12-16T15:52:07.342Z,-1.40
2022-12-16T15:55:07.003Z,-1.30
2022-12-16T15:57:55.518Z,-1.40
2022-12-16T16:00:43.904Z,-1.40
2022-12-16T16:03:38.145Z,-1.40
2022-12-16T16:06:32.244Z,-1.40
2022-12-16T16:09:17.945Z,-1.40
2022-12-16T16:12:03.697Z,-1.40
2022-12-16T16:14:50.337Z,-1.40
2022-12-16T16:17:41.033Z,-1.40
2022-12-16T16:20:33.511Z,-1.40
2022-12-16T16:23:18.903Z,-1.30
2022-12-16T16:26:05.043Z,-1.40
2022-12-16T16:28:50.364Z,-1.40
2022-12-16T16:31:37.750Z,-1.40
2022-12-16T16:34:23.385Z,-1.50
2022-12-16T16:37:15.051Z,-1.50
2022-12-16T16:40:01.291Z,-1.40
2022-12-16T16:42:47.363Z,-1.40
2022-12-16T16:45:32.867Z,-1.50
2022-12-16T16:48:28.345Z,-1.50
2022-12-16T16:51:15.340Z,-1.50
2022-12-16T16:54:00.684Z,-1.50
2022-12-16T16:56:49.487Z,-1.50
2022-12-16T16:59:35.021Z,-1.50
2022-12-16T17:02:21.067Z,-1.50
2022-12-16T17:05:07.997Z,-1.40
2022-12-16T17:07:54.124Z,-1.50
2022-12-16T17:10:39.690Z,-1.60
2022-12-16T17:13:25.645Z,-1.50
2022-12-16T17:16:11.400Z,-1.50
2022-12-16T17:18:56.708Z,-1.50
2022-12-16T17:21:45.846Z,-1.60
2022-12-16T17:24:31.065Z,-1.60
2022-12-16T17:27:16.266Z,-1.60
2022-12-16T17:30:01.890Z,-1.60
2022-12-16T17:32:58.941Z,-1.60
2022-12-16T17:35:44.271Z,-1.70
2022-12-16T17:38:31.373Z,-1.70
2022-12-16T17:41:16.771Z,-1.60
2022-12-16T17:43:58.641Z,-1.70
2022-12-16T17:46:44.184Z,-1.60
2022-12-16T17:49:30.153Z,-1.60
2022-12-16T17:52:15.415Z,-1.50
2022-12-16T17:55:02.115Z,-1.60
2022-12-16T17:57:46.942Z,-1.60
2022-12-16T18:00:33.334Z,-1.70
2022-12-16T18:03:18.804Z,-1.70
2022-12-16T18:06:04.555Z,-1.70
2022-12-16T18:08:50.176Z,-1.80
2022-12-16T18:11:38.880Z,-1.80
2022-12-16T18:14:24.795Z,-1.80
2022-12-16T18:17:10.440Z,-1.70
2022-12-16T18:19:56.044Z,-1.80
2022-12-16T18:22:41.448Z,-1.80
2022-12-16T18:25:26.759Z,-1.80
2022-12-16T18:28:13.684Z,-1.80
2022-12-16T18:31:07.481Z,-1.80
2022-12-16T18:33:53.010Z,-1.90
2022-12-16T18:36:38.506Z,-1.90
2022-12-16T18:39:23.851Z,-1.80
2022-12-16T18:42:09.255Z,-1.80
2022-12-16T18:45:00.806Z,-1.80
2022-12-16T18:47:45.710Z,-1.90
2022-12-16T18:50:35.907Z,-1.90
2022-12-16T18:53:24.528Z,-1.90
2022-12-16T18:56:18.303Z,-1.90
2022-12-16T18:59:03.769Z,-1.90
2022-12-16T19:01:51.029Z,-1.90
2022-12-16T19:04:36.699Z,-1.90
2022-12-16T19:07:22.363Z,-1.90
2022-12-16T19:10:08.187Z,-1.90
2022-12-16T19:12:58.805Z,-1.90
2022-12-16T19:15:44.500Z,-1.90
2022-12-16T19:18:31.669Z,-2.00
2022-12-16T19:21:17.044Z,-2.00
2022-12-16T19:24:02.861Z,-2.00
2022-12-16T19:26:48.345Z,-2.00
2022-12-16T19:29:33.652Z,-2.00
2022-12-16T19:32:19.074Z,-2.00
2022-12-16T19:35:05.822Z,-2.00
2022-12-16T19:37:53.636Z,-2.10
2022-12-16T19:40:42.149Z,-2.00
2022-12-16T19:43:27.633Z,-2.10
2022-12-16T19:46:25.614Z,-2.10
2022-12-16T19:49:11.335Z,-2.10
2022-12-16T19:51:58.369Z,-2.10
2022-12-16T19:54:44.079Z,-2.10
2022-12-16T19:57:29.520Z,-2.00
2022-12-16T20:00:15.402Z,-2.10
2022-12-16T20:03:01.265Z,-2.10
2022-12-16T20:05:47.219Z,-2.10
2022-12-16T20:08:34.052Z,-2.10
2022-12-16T20:11:23.983Z,-2.10
2022-12-16T20:14:11.774Z,-2.10
2022-12-16T20:16:57.330Z,-2.10
2022-12-16T20:19:42.879Z,-2.10
2022-12-16T20:22:28.018Z,-2.10
2022-12-16T20:25:15.072Z,-2.10
2022-12-16T20:28:00.834Z,-2.10
2022-12-16T20:30:46.241Z,-2.20
2022-12-16T20:33:33.085Z,-2.20
2022-12-16T20:36:20.173Z,-2.20
2022-12-16T20:39:06.372Z,-2.20
2022-12-16T20:44:58.693Z,-2.20
2022-12-16T20:47:44.137Z,-2.20
2022-12-16T20:50:29.457Z,-2.20
2022-12-16T20:53:14.664Z,-2.20
2022-12-16T20:56:00.363Z,-2.20
2022-12-16T20:58:47.020Z,-2.20
2022-12-16T21:01:32.371Z,-2.20
2022-12-16T21:04:17.915Z,-2.30
2022-12-16T21:07:02.727Z,-2.20
2022-12-16T21:09:48.055Z,-2.30
2022-12-16T21:12:33.707Z,-2.30
2022-12-16T21:14:42.530Z,-2.20
2022-12-16T21:15:20.544Z,-2.30
2022-12-16T21:18:05.860Z,-2.30
2022-12-16T21:20:51.042Z,-2.30
2022-12-16T21:23:37.263Z,-2.30
2022-12-16T21:26:23.322Z,-2.40
2022-12-16T21:29:08.736Z,-2.30
2022-12-16T21:31:56.633Z,-2.30
2022-12-16T21:34:42.750Z,-2.40
2022-12-16T21:37:27.869Z,-2.40
2022-12-16T21:40:13.136Z,-2.40
2022-12-16T21:42:58.597Z,-2.40
2022-12-16T21:45:44.157Z,-2.40
2022-12-16T21:48:31.531Z,-2.40
2022-12-16T21:51:17.388Z,-2.40
2022-12-16T21:57:09.701Z,-2.40
2022-12-16T21:59:56.384Z,-2.50
2022-12-16T22:02:41.798Z,-2.40
2022-12-16T22:05:28.932Z,-2.40
2022-12-16T22:08:14.379Z,-2.50
2022-12-16T22:10:59.821Z,-2.50
2022-12-16T22:13:48.347Z,-2.50
2022-12-16T22:16:34.310Z,-2.50
2022-12-16T22:19:19.916Z,-2.50
2022-12-16T22:22:07.174Z,-2.50
2022-12-16T22:24:52.303Z,-2.50
2022-12-16T22:27:39.257Z,-2.50
2022-12-16T22:30:26.284Z,-2.50
2022-12-16T22:33:11.490Z,-2.50
2022-12-16T22:35:56.878Z,-2.50
2022-12-16T22:38:58.033Z,-2.50
2022-12-16T22:41:43.510Z,-2.50
2022-12-16T22:44:28.957Z,-2.50
2022-12-16T22:47:14.320Z,-2.50
2022-12-16T22:50:04.983Z,-2.50
2022-12-16T22:52:50.740Z,-2.50
2022-12-16T22:55:38.664Z,-2.60
2022-12-16T22:58:28.399Z,-2.50
2022-12-16T23:01:14.565Z,-2.50
2022-12-16T23:03:59.942Z,-2.60
2022-12-16T23:06:45.191Z,-2.60
2022-12-16T23:09:30.644Z,-2.60
2022-12-16T23:12:25.916Z,-2.60
2022-12-16T23:15:13.336Z,-2.60
2022-12-16T23:17:58.557Z,-2.60
2022-12-16T23:20:43.901Z,-2.60
2022-12-16T23:23:29.115Z,-2.60
2022-12-16T23:26:16.107Z,-2.60
2022-12-16T23:29:03.434Z,-2.70
2022-12-16T23:31:48.839Z,-2.70
2022-12-16T23:34:34.230Z,-2.70
2022-12-16T23:37:19.936Z,-2.70
2022-12-16T23:40:05.164Z,-2.70
2022-12-16T23:42:50.408Z,-2.70
2022-12-16T23:45:37.149Z,-2.70
2022-12-16T23:48:24.343Z,-2.70
2022-12-16T23:51:06.256Z,-2.70
2022-12-16T23:53:51.603Z,-2.70
2022-12-16T23:56:37.781Z,-2.70
2022-12-16T23:59:22.930Z,-2.70
